DW0868 Weather Reports


Display with metric or nautical units.
time (UTC)temp
F
wind
direction
speed
MPH
gust
MPH
rain 1hr
in
rain 24hr
in
rain mn
in
humidity
%
barometer
mb
20210920011510 60 113 0.0 0.0 0.00 0.00 0.04 78 1022.3
20210920010011 60 113 0.0 0.0 0.00 0.00 0.04 77 1022.1
20210920004502 61 113 0.0 0.0 0.00 0.00 0.04 76 1022.0
20210920003131 61 113 0.0 0.0 0.00 0.00 0.04 74 1022.0
20210920001708 61 113 0.0 0.0 0.00 0.00 0.04 73 1021.8
20210920000117 62 113 0.0 0.0 0.00 0.00 0.04 71 1021.6
20210919234702 62 113 0.0 0.0 0.00 0.00 0.04 69 1021.3
20210919233057 63 113 0.0 0.0 0.00 0.00 0.04 66 1021.1
20210919231629 64 113 0.0 0.0 0.00 0.00 0.04 63 1020.9
20210919230100 65 113 0.0 0.0 0.00 0.00 0.04 60 1020.7
20210919224649 68 113 0.0 0.0 0.00 0.00 0.04 57 1020.6
20210919223102 70 113 0.0 0.0 0.00 0.00 0.04 53 1020.4
20210919221652 72 113 0.0 0.0 0.00 0.00 0.04 52 1020.2
20210919220054 74 144 0.0 0.0 0.00 0.00 0.04 47 1020.0
20210919214606 75 149 0.0 0.0 0.00 0.00 0.04 44 1019.7
20210919213108 76 55 0.0 0.0 0.00 0.00 0.04 41 1019.7
20210919211618 77 44 0.0 0.0 0.00 0.00 0.04 40 1019.6
20210919210057 78 44 0.0 0.0 0.00 0.00 0.04 38 1019.6
20210919204637 78 38 0.0 0.0 0.00 0.00 0.04 41 1019.5
20210919203120 79 88 0.0 0.0 0.00 0.00 0.04 36 1019.6
20210919201543 79 127 0.0 0.0 0.00 0.00 0.04 37 1019.5
20210919200132 79 38 0.0 0.0 0.00 0.00 0.04 37 1019.4
20210919194547 79 67 0.0 0.0 0.00 0.00 0.04 37 1019.5
20210919193043 79 18 0.0 0.0 0.00 0.00 0.04 39 1019.5
20210919191657 79 53 0.0 0.0 0.00 0.00 0.04 38 1019.5
20210919190104 79 36 0.0 0.0 0.00 0.00 0.04 37 1019.5
20210919184531 79 59 1.0 0.0 0.00 0.00 0.04 38 1019.5
20210919183111 80 349 0.0 0.0 0.00 0.00 0.04 38 1019.4
20210919181640 79 30 0.0 0.0 0.00 0.00 0.04 39 1019.3
20210919180104 78 71 0.0 0.0 0.00 0.00 0.04 42 1019.3
20210919174519 77 91 0.0 0.0 0.00 0.00 0.04 44 1019.3
20210919173018 75 38 0.0 0.0 0.00 0.00 0.04 45 1019.6
20210919171517 75 355 0.0 0.0 0.00 0.00 0.04 48 1019.6
20210919170040 73 34 1.0 0.0 0.00 0.00 0.04 50 1019.6
20210919164534 72 66 1.0 0.0 0.00 0.00 0.04 54 1019.6
20210919163011 72 13 0.0 0.0 0.00 0.00 0.04 55 1019.6
20210919161501 71 63 0.0 0.0 0.00 0.00 0.04 57 1019.7
20210919160133 70 63 1.0 0.0 0.00 0.00 0.04 59 1019.5
20210919154647 70 141 0.0 0.0 0.00 0.00 0.04 63 1019.4
20210919153232 69 124 1.0 0.0 0.00 0.00 0.04 62 1019.3
20210919151712 69 60 1.0 0.0 0.00 0.00 0.04 63 1019.3
20210919150130 69 65 1.0 0.0 0.00 0.00 0.04 63 1019.1
20210919144716 68 52 0.0 0.0 0.00 0.00 0.04 66 1019.1
20210919143111 68 71 1.0 0.0 0.00 0.00 0.04 67 1019.0
20210919141619 68 165 1.0 0.0 0.00 0.00 0.04 68 1018.9
20210919140054 68 330 1.0 0.0 0.00 0.00 0.04 70 1018.8
20210919134609 68 61 1.0 0.0 0.00 0.00 0.04 69 1018.6
20210919133112 68 44 1.0 0.0 0.00 0.00 0.04 72 1018.4
20210919131619 67 69 1.0 0.0 0.00 0.00 0.04 72 1018.3
20210919130045 67 67 1.0 0.0 0.00 0.00 0.04 75 1018.2
20210919124545 66 9 1.0 0.0 0.00 0.00 0.04 76 1018.1
20210919123053 66 71 1.0 0.0 0.00 0.00 0.04 79 1017.8
20210919121613 65 30 0.0 0.0 0.00 0.00 0.04 83 1017.8
20210919120108 64 345 0.0 0.0 0.00 0.00 0.04 84 1017.6
20210919114601 63 275 0.0 0.0 0.00 0.00 0.04 85 1017.4
20210919113029 63 63 0.0 0.0 0.00 0.00 0.04 85 1017.3
20210919111556 63 41 0.0 0.0 0.00 0.00 0.04 85 1017.1
20210919110040 63 15 0.0 0.0 0.00 0.00 0.04 85 1016.8
20210919104556 63 298 0.0 0.0 0.00 0.00 0.04 86 1016.6
20210919103017 63 341 0.0 0.0 0.00 0.00 0.04 86 1016.4
20210919101551 63 69 0.0 0.0 0.00 0.00 0.04 87 1016.4
20210919100018 63 27 0.0 0.0 0.00 0.00 0.04 87 1016.2
20210919094552 64 30 0.0 0.0 0.00 0.00 0.04 87 1015.8
20210919093007 64 65 0.0 0.0 0.00 0.00 0.04 87 1015.7
20210919091504 65 33 0.0 0.0 0.00 0.00 0.04 88 1015.5
20210919090153 66 36 0.0 0.0 0.00 0.00 0.04 88 1015.3
20210919084726 66 355 0.0 0.0 0.00 0.00 0.04 88 1015.1
20210919083125 66 57 0.0 0.0 0.00 0.00 0.04 88 1014.9
20210919081625 66 55 0.0 0.0 0.00 0.00 0.04 88 1014.8
20210919080128 66 338 0.0 0.0 0.00 0.00 0.04 88 1014.7
20210919074600 66 17 0.0 0.0 0.00 0.00 0.04 88 1014.6
20210919073132 66 323 0.0 0.0 0.00 0.00 0.04 88 1014.5
20210919071653 66 30 0.0 0.0 0.00 0.00 0.04 88 1014.5
20210919070106 66 26 0.0 0.0 0.00 0.00 0.04 88 1014.5
20210919064639 66 328 0.0 0.0 0.00 0.00 0.04 88 1014.6
20210919063243 67 32 0.0 0.0 0.00 0.00 0.04 88 1014.7
20210919061652 67 319 0.0 0.0 0.00 0.00 0.04 87 1014.6
20210919060138 67 65 0.0 0.0 0.00 0.00 0.04 88 1014.8
20210919054643 67 67 0.0 0.0 0.00 0.00 0.04 87 1014.8
20210919053120 67 67 0.0 0.0 0.00 0.00 0.04 87 1014.7
20210919051609 67 67 0.0 0.0 0.00 0.00 0.04 87 1014.7
20210919050106 67 77 0.0 0.0 0.00 0.00 0.02 87 1015.0
20210919044610 67 72 0.0 0.0 0.00 0.00 0.00 87 1015.1
20210919043135 66 63 0.0 0.0 0.00 0.00 0.00 87 1015.1
20210919041624 66 316 0.0 0.0 0.00 0.00 0.00 87 1014.6
20210919040123 66 284 0.0 0.0 0.00 0.00 0.00 87 1014.5
20210919034626 66 285 0.0 0.0 0.00 0.00 0.00 87 1014.4
20210919033103 66 308 0.0 0.0 0.00 0.00 0.00 87 1014.3
20210919031603 66 257 0.0 0.0 0.00 0.00 0.00 87 1014.3
20210919030148 66 290 0.0 0.0 0.00 0.00 0.00 87 1014.3
20210919024611 66 290 0.0 0.0 0.00 0.00 0.00 87 1014.3
20210919023142 65 318 0.0 0.0 0.00 0.00 0.00 86 1014.4
20210919021636 65 322 0.0 0.0 0.00 0.00 0.00 85 1014.3
20210919020059 66 323 0.0 0.0 0.00 0.00 0.00 85 1014.2
20210919014548 66 322 0.0 0.0 0.00 0.00 0.00 85 1014.4
20210919013042 66 322 0.0 0.0 0.00 0.00 0.00 84 1014.6